createdAt,value
2022-12-24T00:00:16.710Z,9.31
2022-12-24T00:02:52.423Z,9.32
2022-12-24T00:05:22.783Z,9.26
2022-12-24T00:07:51.623Z,9.24
2022-12-24T00:10:21.403Z,9.22
2022-12-24T00:12:55.746Z,9.21
2022-12-24T00:15:30.854Z,9.21
2022-12-24T00:18:00.092Z,9.22
2022-12-24T00:20:29.090Z,9.26
2022-12-24T00:23:00.427Z,9.29
2022-12-24T00:25:30.342Z,9.18
2022-12-24T00:28:00.682Z,9.23
2022-12-24T00:30:29.486Z,9.37
2022-12-24T00:32:58.775Z,9.28
2022-12-24T00:35:28.680Z,9.32
2022-12-24T00:37:57.385Z,9.23
2022-12-24T00:40:28.297Z,9.32
2022-12-24T00:42:56.989Z,9.31
2022-12-24T00:45:28.215Z,9.41
2022-12-24T00:47:57.763Z,9.45
2022-12-24T00:50:26.736Z,9.33
2022-12-24T00:52:57.879Z,9.29
2022-12-24T00:55:27.001Z,9.30
2022-12-24T00:57:56.191Z,9.24
2022-12-24T01:00:28.973Z,9.17
2022-12-24T01:02:58.017Z,9.16
2022-12-24T01:05:28.330Z,9.26
2022-12-24T01:07:59.528Z,9.15
2022-12-24T01:10:28.450Z,9.18
2022-12-24T01:12:57.510Z,9.13
2022-12-24T01:15:28.484Z,9.13
2022-12-24T01:17:58.797Z,8.97
2022-12-24T01:20:31.924Z,8.97
2022-12-24T01:23:01.000Z,8.99
2022-12-24T01:25:30.463Z,9.00
2022-12-24T01:27:59.952Z,9.01
2022-12-24T01:30:30.906Z,8.88
2022-12-24T01:33:00.002Z,8.92
2022-12-24T01:35:30.410Z,8.86
2022-12-24T01:37:59.381Z,8.89
2022-12-24T01:40:46.432Z,8.90
2022-12-24T01:43:25.256Z,8.80
2022-12-24T01:45:57.888Z,8.71
2022-12-24T01:48:37.985Z,8.70
2022-12-24T01:51:11.505Z,8.65
2022-12-24T01:53:44.119Z,8.67
2022-12-24T01:56:16.337Z,8.54
2022-12-24T01:58:50.264Z,8.38
2022-12-24T02:01:21.055Z,8.12
2022-12-24T02:03:50.319Z,8.18
2022-12-24T02:06:22.234Z,8.20
2022-12-24T02:08:52.089Z,8.20
2022-12-24T02:11:24.757Z,8.29
2022-12-24T02:13:57.450Z,8.41
2022-12-24T02:16:37.578Z,8.57
2022-12-24T02:19:25.302Z,8.67
2022-12-24T02:22:03.701Z,8.65
2022-12-24T02:25:09.436Z,8.69
2022-12-24T02:27:56.664Z,8.82
2022-12-24T02:30:33.926Z,8.73
2022-12-24T02:33:16.045Z,8.66
2022-12-24T02:35:51.941Z,8.66
2022-12-24T02:38:29.438Z,8.67
2022-12-24T02:41:04.738Z,8.69
2022-12-24T02:43:38.227Z,8.66
2022-12-24T02:46:13.980Z,8.66
2022-12-24T02:48:46.361Z,8.57
2022-12-24T02:51:16.322Z,8.56
2022-12-24T02:53:45.382Z,8.62
2022-12-24T02:56:31.523Z,8.57
2022-12-24T02:59:24.104Z,8.69
2022-12-24T03:02:02.705Z,8.69
2022-12-24T03:04:43.593Z,8.57
2022-12-24T03:07:21.216Z,8.54
2022-12-24T03:09:59.166Z,8.48
2022-12-24T03:12:34.319Z,8.39
2022-12-24T03:15:04.953Z,8.28
2022-12-24T03:17:45.522Z,8.21
2022-12-24T03:20:17.473Z,8.04
2022-12-24T03:22:46.632Z,8.07
2022-12-24T03:25:16.291Z,7.93
2022-12-24T03:27:46.616Z,7.87
2022-12-24T03:30:18.632Z,7.91
2022-12-24T03:32:49.835Z,7.80
2022-12-24T03:35:19.027Z,7.85
2022-12-24T03:37:48.043Z,7.83
2022-12-24T03:40:17.024Z,7.79
2022-12-24T03:42:46.249Z,7.82
2022-12-24T03:45:15.112Z,7.77
2022-12-24T03:47:43.883Z,7.71
2022-12-24T03:50:14.982Z,7.74
2022-12-24T03:52:44.479Z,7.89
2022-12-24T03:55:14.171Z,7.87
2022-12-24T03:57:42.879Z,7.84
2022-12-24T04:00:13.083Z,7.84
2022-12-24T04:02:42.887Z,7.77
2022-12-24T04:05:16.319Z,7.89
2022-12-24T04:07:45.413Z,7.85
2022-12-24T04:10:15.200Z,7.83
2022-12-24T04:12:44.032Z,7.78
2022-12-24T04:15:13.617Z,7.72
2022-12-24T04:17:42.916Z,7.63
2022-12-24T04:20:15.943Z,7.62
2022-12-24T04:22:44.730Z,7.69
2022-12-24T04:25:13.619Z,7.58
2022-12-24T04:27:42.720Z,7.62
2022-12-24T04:30:12.532Z,7.59
2022-12-24T04:32:41.355Z,7.55
2022-12-24T04:35:11.055Z,7.68
2022-12-24T04:37:42.018Z,7.67
2022-12-24T04:40:12.123Z,7.70
2022-12-24T04:42:42.904Z,7.69
2022-12-24T04:45:12.163Z,7.84
2022-12-24T04:47:41.973Z,7.81
2022-12-24T04:50:12.076Z,7.87
2022-12-24T04:52:42.439Z,7.90
2022-12-24T04:55:11.897Z,7.94
2022-12-24T04:57:41.544Z,7.87
2022-12-24T05:00:12.349Z,7.78
2022-12-24T05:02:41.585Z,7.76
2022-12-24T05:05:11.890Z,7.72
2022-12-24T05:07:43.166Z,7.76
2022-12-24T05:10:13.039Z,7.77
2022-12-24T05:12:42.442Z,7.71
2022-12-24T05:15:12.184Z,7.59
2022-12-24T05:17:43.214Z,7.63
2022-12-24T05:20:12.195Z,7.65
2022-12-24T05:22:59.934Z,7.59
2022-12-24T05:25:50.415Z,7.55
2022-12-24T05:28:19.257Z,7.66
2022-12-24T05:30:48.518Z,7.64
2022-12-24T05:33:17.927Z,7.68
2022-12-24T05:35:48.247Z,7.70
2022-12-24T05:38:18.732Z,7.66
2022-12-24T05:40:48.269Z,7.78
2022-12-24T05:43:17.182Z,7.70
2022-12-24T05:45:46.149Z,7.78
2022-12-24T05:48:14.984Z,7.76
2022-12-24T05:50:44.126Z,7.79
2022-12-24T05:53:13.311Z,7.80
2022-12-24T05:55:43.668Z,7.87
2022-12-24T05:58:12.415Z,7.86
2022-12-24T06:00:41.143Z,7.84
2022-12-24T06:03:10.107Z,7.95
2022-12-24T06:05:41.655Z,7.85
2022-12-24T06:08:09.895Z,7.76
2022-12-24T06:10:38.146Z,7.89
2022-12-24T06:13:08.544Z,7.94
2022-12-24T06:15:37.936Z,7.97
2022-12-24T06:18:07.197Z,7.92
2022-12-24T06:20:36.558Z,7.84
2022-12-24T06:23:05.153Z,7.99
2022-12-24T06:25:34.038Z,7.88
2022-12-24T06:28:02.904Z,7.94
2022-12-24T06:30:33.712Z,7.91
2022-12-24T06:33:02.257Z,8.00
2022-12-24T06:35:33.401Z,8.00
2022-12-24T06:38:02.254Z,7.91
2022-12-24T06:40:31.397Z,7.83
2022-12-24T06:43:00.083Z,7.93
2022-12-24T06:45:28.652Z,7.94
2022-12-24T06:48:00.512Z,8.01
2022-12-24T06:50:29.850Z,7.95
2022-12-24T06:52:58.651Z,8.04
2022-12-24T06:55:27.994Z,7.91
2022-12-24T06:57:57.580Z,8.01
2022-12-24T07:00:26.529Z,8.09
2022-12-24T07:02:55.569Z,7.90
2022-12-24T07:05:25.696Z,7.78
2022-12-24T07:07:55.773Z,7.58
2022-12-24T07:10:24.495Z,7.47
2022-12-24T07:12:55.033Z,7.41
2022-12-24T07:15:23.819Z,7.28
2022-12-24T07:17:52.583Z,7.25
2022-12-24T07:20:23.021Z,7.26
2022-12-24T07:22:53.244Z,7.18
2022-12-24T07:25:21.909Z,7.18
2022-12-24T07:27:50.437Z,7.26
2022-12-24T07:30:19.702Z,7.24
2022-12-24T07:32:49.506Z,7.21
2022-12-24T07:35:28.072Z,7.29
2022-12-24T07:37:58.314Z,7.26
2022-12-24T07:40:27.074Z,7.36
2022-12-24T07:42:55.340Z,7.27
2022-12-24T07:45:23.650Z,7.26
2022-12-24T07:47:52.213Z,7.24
2022-12-24T07:50:20.735Z,7.30
2022-12-24T07:52:51.593Z,7.17
2022-12-24T07:55:22.155Z,7.19
2022-12-24T07:57:51.773Z,7.19
2022-12-24T08:00:21.133Z,7.04
2022-12-24T08:02:49.556Z,7.10
2022-12-24T08:05:18.826Z,6.99
2022-12-24T08:07:48.264Z,7.15
2022-12-24T08:10:17.512Z,7.17
2022-12-24T08:12:48.950Z,7.41
2022-12-24T08:15:17.668Z,7.40
2022-12-24T08:17:46.879Z,7.75
2022-12-24T08:20:16.245Z,7.72
2022-12-24T08:22:44.840Z,7.89
2022-12-24T08:25:14.712Z,7.89
2022-12-24T08:27:43.791Z,7.93
2022-12-24T08:30:21.012Z,7.97
2022-12-24T08:32:52.708Z,7.90
2022-12-24T08:35:22.617Z,7.95
2022-12-24T08:37:51.123Z,7.98
2022-12-24T08:40:19.732Z,8.06
2022-12-24T08:42:48.561Z,8.09
2022-12-24T08:45:20.060Z,8.06
2022-12-24T08:47:50.667Z,8.03
2022-12-24T08:50:19.649Z,7.89
2022-12-24T08:52:48.552Z,8.17
2022-12-24T08:55:20.177Z,7.96
2022-12-24T08:57:50.854Z,7.96
2022-12-24T09:00:22.000Z,8.14
2022-12-24T09:02:50.891Z,8.03
2022-12-24T09:05:20.970Z,8.09
2022-12-24T09:07:50.018Z,8.13
2022-12-24T09:10:18.607Z,8.19
2022-12-24T09:12:51.299Z,8.17
2022-12-24T09:15:21.746Z,8.09
2022-12-24T09:17:52.365Z,8.19
2022-12-24T09:20:21.508Z,8.22
2022-12-24T09:22:52.912Z,8.19
2022-12-24T09:25:22.193Z,8.30
2022-12-24T09:27:51.015Z,8.33
2022-12-24T09:30:22.148Z,8.41
2022-12-24T09:32:53.304Z,8.54
2022-12-24T09:35:22.615Z,8.61
2022-12-24T09:38:03.416Z,8.64
2022-12-24T09:40:38.038Z,8.70
2022-12-24T09:43:14.715Z,8.74
2022-12-24T09:45:51.644Z,8.76
2022-12-24T09:48:25.826Z,8.77
2022-12-24T09:51:01.611Z,8.70
2022-12-24T09:53:40.256Z,8.63
2022-12-24T09:56:16.683Z,8.67
2022-12-24T09:58:51.431Z,8.58
2022-12-24T10:01:22.593Z,8.71
2022-12-24T10:03:55.389Z,8.74
2022-12-24T10:06:31.646Z,8.62
2022-12-24T10:09:10.927Z,8.59
2022-12-24T10:11:49.104Z,8.67
2022-12-24T10:14:36.910Z,8.71
2022-12-24T10:17:22.580Z,8.80
2022-12-24T10:19:58.395Z,8.90
2022-12-24T10:22:37.370Z,8.90
2022-12-24T10:25:18.253Z,8.96
2022-12-24T10:27:47.996Z,9.19
2022-12-24T10:30:19.989Z,9.34
2022-12-24T10:32:55.579Z,9.40
2022-12-24T10:35:27.986Z,9.49
2022-12-24T10:37:59.037Z,9.55
2022-12-24T10:40:38.363Z,9.77
2022-12-24T10:43:16.783Z,9.82
2022-12-24T10:45:50.125Z,9.84
2022-12-24T10:48:27.652Z,9.84
2022-12-24T10:51:02.461Z,9.86
2022-12-24T10:53:40.569Z,9.96
2022-12-24T10:56:13.384Z,10.07
2022-12-24T10:58:46.443Z,9.87
2022-12-24T11:01:16.183Z,10.01
2022-12-24T11:03:47.432Z,10.04
2022-12-24T11:06:22.040Z,10.00
2022-12-24T11:08:50.719Z,9.98
2022-12-24T11:11:26.495Z,9.91
2022-12-24T11:13:58.583Z,9.96
2022-12-24T11:16:31.740Z,9.91
2022-12-24T11:19:04.715Z,9.84
2022-12-24T11:21:35.914Z,9.95
2022-12-24T11:24:11.590Z,10.01
2022-12-24T11:26:44.316Z,10.26
2022-12-24T11:29:22.521Z,10.30
2022-12-24T11:31:53.070Z,10.48
2022-12-24T11:34:31.830Z,10.59
2022-12-24T11:37:15.087Z,10.58
2022-12-24T11:39:51.274Z,10.68
2022-12-24T11:42:29.075Z,10.65
2022-12-24T11:45:00.159Z,10.55
2022-12-24T11:47:37.225Z,10.57
2022-12-24T11:50:27.346Z,10.59
2022-12-24T11:53:03.164Z,10.47
2022-12-24T11:55:43.962Z,10.44
2022-12-24T11:58:25.888Z,10.45
2022-12-24T12:01:16.036Z,10.62
2022-12-24T12:03:50.730Z,10.49
2022-12-24T12:06:32.587Z,10.47
2022-12-24T12:09:10.081Z,10.50
2022-12-24T12:11:44.509Z,10.49
2022-12-24T12:14:22.790Z,10.48
2022-12-24T12:17:05.830Z,10.60
2022-12-24T12:19:46.298Z,10.61
2022-12-24T12:22:30.956Z,10.58
2022-12-24T12:25:01.562Z,10.67
2022-12-24T12:27:35.795Z,10.56
2022-12-24T12:30:08.334Z,10.57
2022-12-24T12:32:49.436Z,10.68
2022-12-24T12:35:26.555Z,10.68
2022-12-24T12:38:01.467Z,10.67
2022-12-24T12:40:45.533Z,10.70
2022-12-24T12:43:31.094Z,10.52
2022-12-24T12:46:12.475Z,10.69
2022-12-24T12:49:03.165Z,10.63
2022-12-24T12:51:46.475Z,10.56
2022-12-24T12:54:34.499Z,10.56
2022-12-24T12:57:10.248Z,10.40
2022-12-24T12:59:43.844Z,10.14
2022-12-24T13:02:37.883Z,10.07
2022-12-24T13:05:37.614Z,9.93
2022-12-24T13:08:25.236Z,9.91
2022-12-24T13:11:14.179Z,9.93
2022-12-24T13:14:22.590Z,10.02
2022-12-24T13:17:40.179Z,10.16
2022-12-24T13:20:30.960Z,10.31
2022-12-24T13:23:04.240Z,10.39
2022-12-24T13:25:37.888Z,10.55
2022-12-24T13:28:35.630Z,10.69
2022-12-24T13:31:30.337Z,10.68
2022-12-24T13:34:05.446Z,10.53
2022-12-24T13:37:05.674Z,10.50
2022-12-24T13:40:03.646Z,10.44
2022-12-24T13:42:50.020Z,10.41
2022-12-24T13:45:46.865Z,10.29
2022-12-24T13:48:27.726Z,10.15
2022-12-24T13:50:59.174Z,10.17
2022-12-24T13:53:36.781Z,10.22
2022-12-24T13:56:10.894Z,10.22
2022-12-24T13:58:40.720Z,10.33
2022-12-24T14:01:15.823Z,10.25
2022-12-24T14:03:47.607Z,10.23
2022-12-24T14:06:26.540Z,9.95
2022-12-24T14:08:58.808Z,9.89
2022-12-24T14:11:34.558Z,9.86
2022-12-24T14:14:29.157Z,9.70
2022-12-24T14:17:01.810Z,9.48
2022-12-24T14:19:37.521Z,9.41
2022-12-24T14:22:22.336Z,9.33
2022-12-24T14:24:56.750Z,9.25
2022-12-24T14:27:31.458Z,9.11
2022-12-24T14:30:07.951Z,8.97
2022-12-24T14:32:40.722Z,9.13
2022-12-24T14:35:16.441Z,9.15
2022-12-24T14:37:48.324Z,9.13
2022-12-24T14:40:20.691Z,9.11
2022-12-24T14:42:56.658Z,9.18
2022-12-24T14:45:33.710Z,9.11
2022-12-24T14:48:13.761Z,9.06
2022-12-24T14:51:10.139Z,9.13
2022-12-24T14:54:04.580Z,8.87
2022-12-24T14:56:34.049Z,8.85
2022-12-24T14:59:15.985Z,8.83
2022-12-24T15:01:45.759Z,8.75
2022-12-24T15:04:20.222Z,8.72
2022-12-24T15:06:52.868Z,8.62
2022-12-24T15:09:24.238Z,8.53
2022-12-24T15:11:55.624Z,8.40
2022-12-24T15:14:27.370Z,8.28
2022-12-24T15:17:00.922Z,8.15
2022-12-24T15:19:39.619Z,8.17
2022-12-24T15:22:16.049Z,8.15
2022-12-24T15:24:49.042Z,8.21
2022-12-24T15:27:19.803Z,8.32
2022-12-24T15:29:50.758Z,8.23
2022-12-24T15:32:21.677Z,8.27
2022-12-24T15:34:53.736Z,8.18
2022-12-24T15:37:28.684Z,8.02
2022-12-24T15:40:01.217Z,7.94
2022-12-24T15:42:31.675Z,7.89
2022-12-24T15:45:05.503Z,7.66
2022-12-24T15:47:39.621Z,7.65
2022-12-24T15:50:16.800Z,7.64
2022-12-24T15:52:47.253Z,7.46
2022-12-24T15:55:31.216Z,7.41
2022-12-24T15:58:00.652Z,7.24
2022-12-24T16:00:32.807Z,7.16
2022-12-24T16:03:23.813Z,7.03
2022-12-24T16:06:02.999Z,6.86
2022-12-24T16:08:32.982Z,6.76
2022-12-24T16:11:19.709Z,6.65
2022-12-24T16:14:08.773Z,6.59
2022-12-24T16:16:40.496Z,6.49
2022-12-24T16:19:18.989Z,6.51
2022-12-24T16:21:54.310Z,6.54
2022-12-24T16:24:28.087Z,6.51
2022-12-24T16:26:57.818Z,6.48
2022-12-24T16:29:28.315Z,6.50
2022-12-24T16:32:00.797Z,6.57
2022-12-24T16:34:32.167Z,6.46
2022-12-24T16:37:02.567Z,6.46
2022-12-24T16:39:32.771Z,6.50
2022-12-24T16:42:20.879Z,6.60
2022-12-24T16:44:49.981Z,6.53
2022-12-24T16:47:21.871Z,6.46
2022-12-24T16:49:50.904Z,6.63
2022-12-24T16:52:22.864Z,6.66
2022-12-24T16:54:52.070Z,6.69
2022-12-24T16:57:21.967Z,6.67
2022-12-24T16:59:51.676Z,6.83
2022-12-24T17:02:24.210Z,6.84
2022-12-24T17:04:55.219Z,6.91
2022-12-24T17:07:31.054Z,6.94
2022-12-24T17:10:01.881Z,6.96
2022-12-24T17:12:30.776Z,7.01
2022-12-24T17:15:00.519Z,7.11
2022-12-24T17:17:32.684Z,7.19
2022-12-24T17:20:01.811Z,7.02
2022-12-24T17:22:35.584Z,7.02
2022-12-24T17:25:04.885Z,7.10
2022-12-24T17:27:34.182Z,7.05
2022-12-24T17:30:03.662Z,7.00
2022-12-24T17:32:32.806Z,6.90
2022-12-24T17:35:02.734Z,6.95
2022-12-24T17:37:33.407Z,6.91
2022-12-24T17:40:02.272Z,6.81
2022-12-24T17:42:31.347Z,6.91
2022-12-24T17:45:00.834Z,6.90
2022-12-24T17:47:36.511Z,6.88
2022-12-24T17:50:06.368Z,6.97
2022-12-24T17:52:36.589Z,7.00
2022-12-24T17:55:05.791Z,7.02
2022-12-24T17:57:35.800Z,7.04
2022-12-24T18:00:04.265Z,7.11
2022-12-24T18:02:33.032Z,7.13
2022-12-24T18:05:01.958Z,7.12
2022-12-24T18:07:31.068Z,7.11
2022-12-24T18:10:01.802Z,7.06
2022-12-24T18:12:30.431Z,7.07
2022-12-24T18:14:59.351Z,7.02
2022-12-24T18:17:27.965Z,7.05
2022-12-24T18:19:56.753Z,7.08
2022-12-24T18:22:26.788Z,7.07
2022-12-24T18:24:55.197Z,7.01
2022-12-24T18:27:25.792Z,7.08
2022-12-24T18:29:54.907Z,7.09
2022-12-24T18:32:23.692Z,7.10
2022-12-24T18:34:53.824Z,7.14
2022-12-24T18:37:22.409Z,7.10
2022-12-24T18:39:51.061Z,7.15
2022-12-24T18:42:20.309Z,7.15
2022-12-24T18:44:50.423Z,7.12
2022-12-24T18:47:19.494Z,7.23
2022-12-24T18:49:48.156Z,7.21
2022-12-24T18:52:22.547Z,7.22
2022-12-24T18:54:52.884Z,7.21
2022-12-24T18:57:22.259Z,7.21
2022-12-24T18:59:53.744Z,7.27
2022-12-24T19:02:22.565Z,7.19
2022-12-24T19:04:51.317Z,7.15
2022-12-24T19:07:20.015Z,7.23
2022-12-24T19:09:49.315Z,7.22
2022-12-24T19:12:17.830Z,7.18
2022-12-24T19:14:46.301Z,7.21
2022-12-24T19:17:16.732Z,7.23
2022-12-24T19:19:46.356Z,7.21
2022-12-24T19:22:15.409Z,7.23
2022-12-24T19:24:44.734Z,7.13
2022-12-24T19:27:13.361Z,7.21
2022-12-24T19:29:42.201Z,7.14
2022-12-24T19:32:11.290Z,7.15
2022-12-24T19:34:43.080Z,7.15
2022-12-24T19:37:11.811Z,7.15
2022-12-24T19:39:40.465Z,7.14
2022-12-24T19:42:08.986Z,7.15
2022-12-24T19:44:39.476Z,7.12
2022-12-24T19:47:07.941Z,7.05
2022-12-24T19:49:36.763Z,7.07
2022-12-24T19:52:07.835Z,7.06
2022-12-24T19:54:39.182Z,6.97
2022-12-24T19:57:08.948Z,7.05
2022-12-24T19:59:39.914Z,7.05
2022-12-24T20:02:11.739Z,7.07
2022-12-24T20:04:40.707Z,7.04
2022-12-24T20:07:11.103Z,7.08
2022-12-24T20:09:41.479Z,7.07
2022-12-24T20:12:12.728Z,7.11
2022-12-24T20:14:41.937Z,7.09
2022-12-24T20:17:10.620Z,7.10
2022-12-24T20:19:40.389Z,7.13
2022-12-24T20:22:10.627Z,7.10
2022-12-24T20:24:39.340Z,7.09
2022-12-24T20:27:08.560Z,7.15
2022-12-24T20:29:37.716Z,7.16
2022-12-24T20:32:06.995Z,7.15
2022-12-24T20:34:36.935Z,7.18
2022-12-24T20:37:06.403Z,7.16
2022-12-24T20:39:36.663Z,7.18
2022-12-24T20:42:05.969Z,7.16
2022-12-24T20:44:34.699Z,7.15
2022-12-24T20:47:03.882Z,7.07
2022-12-24T20:49:32.544Z,7.12
2022-12-24T20:52:01.795Z,6.99
2022-12-24T20:54:30.696Z,6.99
2022-12-24T20:57:02.735Z,7.04
2022-12-24T20:59:31.556Z,7.08
2022-12-24T21:02:01.071Z,6.93
2022-12-24T21:04:29.950Z,6.96
2022-12-24T21:06:58.657Z,6.97
2022-12-24T21:09:27.632Z,6.99
2022-12-24T21:12:13.848Z,6.89
2022-12-24T21:14:45.449Z,6.89
2022-12-24T21:17:16.135Z,6.88
2022-12-24T21:19:45.337Z,6.87
2022-12-24T21:22:13.726Z,6.84
2022-12-24T21:24:43.634Z,6.76
2022-12-24T21:27:13.025Z,6.79
2022-12-24T21:29:44.330Z,6.82
2022-12-24T21:32:14.086Z,6.78
2022-12-24T21:34:42.888Z,6.75
2022-12-24T21:37:11.653Z,6.71
2022-12-24T21:39:42.541Z,6.60
2022-12-24T21:42:11.106Z,6.59
2022-12-24T21:44:40.176Z,6.70
2022-12-24T21:47:11.456Z,6.70
2022-12-24T21:49:57.367Z,6.71
2022-12-24T21:52:26.062Z,6.62
2022-12-24T21:54:53.787Z,6.70
2022-12-24T21:57:43.283Z,6.75
2022-12-24T22:00:27.684Z,6.66
2022-12-24T22:02:59.706Z,6.80
2022-12-24T22:05:29.908Z,6.71
2022-12-24T22:08:16.120Z,6.62
2022-12-24T22:11:04.756Z,6.58
2022-12-24T22:13:33.942Z,6.58
2022-12-24T22:16:03.140Z,6.64
2022-12-24T22:18:34.279Z,6.66
2022-12-24T22:21:04.999Z,6.62
2022-12-24T22:23:38.571Z,6.67
2022-12-24T22:26:13.847Z,6.67
2022-12-24T22:28:42.531Z,6.66
2022-12-24T22:31:19.255Z,6.50
2022-12-24T22:33:51.401Z,6.55
2022-12-24T22:36:20.515Z,6.47
2022-12-24T22:38:50.032Z,6.51
2022-12-24T22:41:19.622Z,6.49
2022-12-24T22:43:48.731Z,6.51
2022-12-24T22:46:18.664Z,6.47
2022-12-24T22:48:49.497Z,6.48
2022-12-24T22:51:21.816Z,6.29
2022-12-24T22:53:51.942Z,6.38
2022-12-24T22:56:24.176Z,6.51
2022-12-24T22:58:56.549Z,6.49
2022-12-24T23:01:36.152Z,6.46
2022-12-24T23:04:09.090Z,6.49
2022-12-24T23:06:39.398Z,6.43
2022-12-24T23:09:11.547Z,6.52
2022-12-24T23:11:41.537Z,6.53
2022-12-24T23:14:34.391Z,6.57
2022-12-24T23:17:03.314Z,6.58
2022-12-24T23:19:34.064Z,6.53
2022-12-24T23:22:04.355Z,6.57
2022-12-24T23:24:33.642Z,6.57
2022-12-24T23:27:03.129Z,6.48
2022-12-24T23:29:36.794Z,6.48
2022-12-24T23:32:07.438Z,6.46
2022-12-24T23:34:39.120Z,6.45
2022-12-24T23:37:08.357Z,6.31
2022-12-24T23:39:37.697Z,6.42
2022-12-24T23:42:07.213Z,6.51
2022-12-24T23:44:38.809Z,6.53
2022-12-24T23:47:08.758Z,6.54
2022-12-24T23:49:43.139Z,6.63
2022-12-24T23:52:12.327Z,6.60
2022-12-24T23:54:43.767Z,6.48
2022-12-24T23:57:12.471Z,6.59
2022-12-24T23:59:43.108Z,6.59
